createdAt,value
2018-09-09T00:01:03.571Z,18.86
2018-09-09T00:03:29.884Z,18.86
2018-09-09T00:05:56.202Z,18.87
2018-09-09T00:08:22.508Z,18.88
2018-09-09T00:10:48.829Z,18.91
2018-09-09T00:13:15.149Z,18.89
2018-09-09T00:15:41.468Z,18.89
2018-09-09T00:18:07.781Z,18.86
2018-09-09T00:20:34.097Z,18.82
2018-09-09T00:23:00.433Z,18.80
2018-09-09T00:25:26.750Z,18.81
2018-09-09T00:27:53.069Z,18.82
2018-09-09T00:30:19.417Z,18.82
2018-09-09T00:32:45.725Z,18.86
2018-09-09T00:35:12.042Z,18.83
2018-09-09T00:37:38.358Z,18.82
2018-09-09T00:40:04.675Z,18.76
2018-09-09T00:42:30.985Z,18.77
2018-09-09T00:44:57.300Z,18.77
2018-09-09T00:47:23.619Z,18.81
2018-09-09T00:49:49.930Z,18.83
2018-09-09T00:52:16.242Z,18.78
2018-09-09T00:54:42.556Z,18.76
2018-09-09T00:57:08.905Z,18.70
2018-09-09T00:59:35.219Z,18.65
2018-09-09T01:02:01.531Z,18.66
2018-09-09T01:04:27.844Z,18.67
2018-09-09T01:06:54.164Z,18.73
2018-09-09T01:09:20.479Z,18.75
2018-09-09T01:11:46.833Z,18.77
2018-09-09T01:14:13.149Z,18.76
2018-09-09T01:16:39.501Z,18.70
2018-09-09T01:19:05.812Z,18.68
2018-09-09T01:21:32.129Z,18.63
2018-09-09T01:23:58.446Z,18.64
2018-09-09T01:26:24.766Z,18.60
2018-09-09T01:28:51.081Z,18.60
2018-09-09T01:31:17.404Z,18.61
2018-09-09T01:33:43.746Z,18.53
2018-09-09T01:36:10.057Z,18.50
2018-09-09T01:38:36.377Z,18.53
2018-09-09T01:41:02.724Z,18.57
2018-09-09T01:43:29.036Z,18.59
2018-09-09T01:45:55.356Z,18.66
2018-09-09T01:48:21.678Z,18.64
2018-09-09T01:50:47.992Z,18.56
2018-09-09T01:53:14.304Z,18.56
2018-09-09T01:55:40.626Z,18.55
2018-09-09T01:58:06.935Z,18.53
2018-09-09T02:00:33.254Z,18.52
2018-09-09T02:02:59.567Z,18.48
2018-09-09T02:05:25.885Z,18.45
2018-09-09T02:07:52.210Z,18.44
2018-09-09T02:10:18.517Z,18.42
2018-09-09T02:12:44.883Z,18.35
2018-09-09T02:15:11.199Z,18.29
2018-09-09T02:17:37.509Z,18.30
2018-09-09T02:20:03.825Z,18.24
2018-09-09T02:22:30.140Z,18.23
2018-09-09T02:24:56.492Z,18.22
2018-09-09T02:27:22.811Z,18.20
2018-09-09T02:29:49.134Z,18.23
2018-09-09T02:32:15.451Z,18.20
2018-09-09T02:34:41.773Z,18.17
2018-09-09T02:37:08.081Z,18.11
2018-09-09T02:39:34.404Z,18.03
2018-09-09T02:42:00.713Z,17.99
2018-09-09T02:44:27.024Z,18.02
2018-09-09T02:46:53.343Z,17.96
2018-09-09T02:49:19.657Z,17.93
2018-09-09T02:51:45.977Z,17.91
2018-09-09T02:54:12.285Z,17.90
2018-09-09T02:56:38.601Z,17.92
2018-09-09T02:59:04.909Z,17.94
2018-09-09T03:01:31.231Z,17.95
2018-09-09T03:03:57.544Z,17.92
2018-09-09T03:06:25.477Z,17.88
2018-09-09T03:08:50.177Z,17.90
2018-09-09T03:11:16.542Z,17.87
2018-09-09T03:13:42.849Z,17.86
2018-09-09T03:16:09.218Z,17.85
2018-09-09T03:18:35.524Z,17.85
2018-09-09T03:21:01.888Z,17.84
2018-09-09T03:23:28.203Z,17.83
2018-09-09T03:25:54.513Z,17.81
2018-09-09T03:28:20.849Z,17.81
2018-09-09T03:30:47.204Z,17.81
2018-09-09T03:33:13.515Z,17.72
2018-09-09T03:35:39.821Z,17.67
2018-09-09T03:38:06.137Z,17.66
2018-09-09T03:40:32.453Z,17.62
2018-09-09T03:42:58.779Z,17.55
2018-09-09T03:45:25.097Z,17.57
2018-09-09T03:47:51.412Z,17.55
2018-09-09T03:50:17.747Z,17.58
2018-09-09T03:52:44.067Z,17.54
2018-09-09T03:55:10.381Z,17.45
2018-09-09T03:57:36.733Z,17.43
2018-09-09T04:00:04.074Z,17.42
2018-09-09T04:02:30.383Z,17.46
2018-09-09T04:04:56.699Z,17.48
2018-09-09T04:07:23.009Z,17.60
2018-09-09T04:09:49.324Z,17.62
2018-09-09T04:12:15.672Z,17.82
2018-09-09T04:14:41.987Z,18.01
2018-09-09T04:17:08.300Z,18.05
2018-09-09T04:19:34.617Z,18.00
2018-09-09T04:22:00.931Z,18.18
2018-09-09T04:24:27.247Z,18.40
2018-09-09T04:26:53.563Z,18.49
2018-09-09T04:29:19.872Z,18.59
2018-09-09T04:31:46.235Z,18.69
2018-09-09T04:34:12.554Z,18.81
2018-09-09T04:36:38.866Z,18.83
2018-09-09T04:39:05.181Z,18.90
2018-09-09T04:41:31.493Z,18.87
2018-09-09T04:43:57.814Z,19.00
2018-09-09T04:46:24.162Z,19.08
2018-09-09T04:48:50.436Z,19.01
2018-09-09T04:51:16.761Z,19.10
2018-09-09T04:53:43.071Z,19.20
2018-09-09T04:56:09.388Z,19.27
2018-09-09T04:58:35.711Z,19.29
2018-09-09T05:01:02.022Z,19.43
2018-09-09T05:03:28.339Z,19.52
2018-09-09T05:05:54.654Z,19.35
2018-09-09T05:08:20.969Z,19.64
2018-09-09T05:10:47.293Z,19.52
2018-09-09T05:13:13.606Z,19.56
2018-09-09T05:15:39.923Z,19.56
2018-09-09T05:18:06.236Z,19.50
2018-09-09T05:20:32.553Z,19.75
2018-09-09T05:22:58.864Z,19.87
2018-09-09T05:25:25.175Z,19.92
2018-09-09T05:27:51.544Z,19.84
2018-09-09T05:30:17.854Z,19.76
2018-09-09T05:32:44.169Z,19.82
2018-09-09T05:35:10.491Z,20.10
2018-09-09T05:37:36.817Z,20.14
2018-09-09T05:40:03.134Z,20.21
2018-09-09T05:42:29.519Z,20.32
2018-09-09T05:44:55.757Z,20.65
2018-09-09T05:47:22.068Z,20.89
2018-09-09T05:49:48.386Z,20.88
2018-09-09T05:52:14.700Z,21.18
2018-09-09T05:54:41.017Z,21.46
2018-09-09T05:57:07.337Z,21.62
2018-09-09T05:59:33.652Z,21.68
2018-09-09T06:01:59.966Z,22.00
2018-09-09T06:04:26.281Z,22.06
2018-09-09T06:06:52.600Z,22.02
2018-09-09T06:09:18.919Z,21.88
2018-09-09T06:11:45.227Z,22.05
2018-09-09T06:14:11.551Z,22.22
2018-09-09T06:16:37.863Z,22.38
2018-09-09T06:19:04.183Z,22.48
2018-09-09T06:21:30.498Z,22.61
2018-09-09T06:23:56.818Z,22.61
2018-09-09T06:26:23.135Z,22.90
2018-09-09T06:28:49.443Z,22.90
2018-09-09T06:31:15.755Z,22.75
2018-09-09T06:33:42.140Z,22.70
2018-09-09T06:36:08.375Z,22.83
2018-09-09T06:38:34.689Z,22.90
2018-09-09T06:41:00.997Z,23.09
2018-09-09T06:43:27.312Z,22.99
2018-09-09T06:45:53.628Z,22.96
2018-09-09T06:48:21.887Z,23.29
2018-09-09T06:50:48.205Z,23.39
2018-09-09T06:53:14.521Z,23.56
2018-09-09T06:55:40.831Z,23.20
2018-09-09T06:58:07.149Z,23.46
2018-09-09T07:00:33.462Z,23.43
2018-09-09T07:02:59.826Z,23.50
2018-09-09T07:05:26.531Z,23.55
2018-09-09T07:07:52.876Z,23.58
2018-09-09T07:10:19.155Z,23.75
2018-09-09T07:12:45.473Z,23.89
2018-09-09T07:15:11.793Z,24.12
2018-09-09T07:17:38.110Z,24.38
2018-09-09T07:20:04.445Z,24.24
2018-09-09T07:22:30.787Z,24.28
2018-09-09T07:24:57.073Z,24.16
2018-09-09T07:27:23.392Z,24.49
2018-09-09T07:29:49.757Z,24.77
2018-09-09T07:32:16.071Z,24.75
2018-09-09T07:34:42.379Z,24.73
2018-09-09T07:37:08.697Z,24.90
2018-09-09T07:39:35.059Z,24.94
2018-09-09T07:42:01.369Z,25.11
2018-09-09T07:44:27.699Z,25.41
2018-09-09T07:46:54.023Z,25.82
2018-09-09T07:49:20.342Z,25.82
2018-09-09T07:51:46.663Z,26.24
2018-09-09T07:54:12.987Z,26.18
2018-09-09T07:56:39.314Z,26.14
2018-09-09T07:59:05.626Z,26.34
2018-09-09T08:01:31.947Z,25.90
2018-09-09T08:03:58.259Z,25.95
2018-09-09T08:06:24.573Z,26.08
2018-09-09T08:08:50.886Z,25.80
2018-09-09T08:11:17.205Z,25.97
2018-09-09T08:13:43.523Z,25.69
2018-09-09T08:16:09.838Z,25.48
2018-09-09T08:18:36.203Z,25.32
2018-09-09T08:21:02.509Z,24.96
2018-09-09T08:23:28.827Z,25.12
2018-09-09T08:25:55.150Z,25.29
2018-09-09T08:28:21.456Z,25.60
2018-09-09T08:30:47.769Z,25.68
2018-09-09T08:33:14.087Z,26.18
2018-09-09T08:35:40.396Z,26.43
2018-09-09T08:38:06.721Z,26.62
2018-09-09T08:40:33.040Z,26.67
2018-09-09T08:42:59.358Z,26.88
2018-09-09T08:45:25.737Z,27.07
2018-09-09T08:47:51.994Z,27.43
2018-09-09T08:50:18.315Z,27.50
2018-09-09T08:52:44.680Z,27.74
2018-09-09T08:55:10.989Z,27.80
2018-09-09T08:57:37.323Z,28.07
2018-09-09T09:00:04.056Z,27.88
2018-09-09T09:02:30.367Z,27.68
2018-09-09T09:04:56.682Z,27.36
2018-09-09T09:07:23.029Z,27.91
2018-09-09T09:09:49.354Z,27.89
2018-09-09T09:12:15.675Z,28.38
2018-09-09T09:14:42.040Z,28.70
2018-09-09T09:17:08.316Z,28.72
2018-09-09T09:19:34.639Z,27.47
2018-09-09T09:22:01.005Z,26.84
2018-09-09T09:24:27.353Z,26.30
2018-09-09T09:26:53.753Z,25.86
2018-09-09T09:29:20.027Z,25.42
2018-09-09T09:31:46.367Z,25.27
2018-09-09T09:34:12.675Z,25.18
2018-09-09T09:36:38.993Z,25.77
2018-09-09T09:39:05.309Z,26.43
2018-09-09T09:41:31.626Z,27.42
2018-09-09T09:43:57.948Z,27.00
2018-09-09T09:46:24.357Z,26.58
2018-09-09T09:48:50.667Z,26.05
2018-09-09T09:51:17.078Z,26.03
2018-09-09T09:53:43.400Z,26.16
2018-09-09T09:56:09.710Z,26.33
2018-09-09T09:58:36.034Z,27.31
2018-09-09T10:01:02.376Z,27.16
2018-09-09T10:03:28.707Z,26.54
2018-09-09T10:05:55.014Z,26.48
2018-09-09T10:08:21.342Z,27.62
2018-09-09T10:10:47.657Z,28.26
2018-09-09T10:13:13.975Z,28.06
2018-09-09T10:15:40.288Z,28.24
2018-09-09T10:18:06.657Z,27.98
2018-09-09T10:20:32.951Z,28.32
2018-09-09T10:22:59.273Z,27.62
2018-09-09T10:25:25.596Z,26.81
2018-09-09T10:27:51.924Z,27.84
2018-09-09T10:30:18.239Z,28.41
2018-09-09T10:32:44.555Z,28.20
2018-09-09T10:35:10.864Z,27.72
2018-09-09T10:37:37.240Z,27.11
2018-09-09T10:40:03.554Z,26.82
2018-09-09T10:42:29.874Z,26.81
2018-09-09T10:44:56.195Z,26.72
2018-09-09T10:47:22.508Z,26.60
2018-09-09T10:49:48.832Z,26.54
2018-09-09T10:52:15.140Z,26.39
2018-09-09T10:54:41.462Z,26.46
2018-09-09T10:57:07.784Z,26.41
2018-09-09T10:59:34.092Z,26.55
2018-09-09T11:02:00.423Z,27.97
2018-09-09T11:04:26.791Z,28.18
2018-09-09T11:06:53.150Z,28.68
2018-09-09T11:09:19.418Z,28.85
2018-09-09T11:11:45.731Z,28.14
2018-09-09T11:14:12.051Z,27.66
2018-09-09T11:16:38.378Z,27.93
2018-09-09T11:19:04.851Z,27.66
2018-09-09T11:21:31.067Z,27.21
2018-09-09T11:23:57.423Z,26.73
2018-09-09T11:26:23.707Z,25.92
2018-09-09T11:28:50.035Z,24.97
2018-09-09T11:31:16.355Z,24.42
2018-09-09T11:33:42.668Z,24.15
2018-09-09T11:36:09.030Z,24.25
2018-09-09T11:38:35.306Z,24.43
2018-09-09T11:41:01.668Z,25.06
2018-09-09T11:43:27.993Z,25.63
2018-09-09T11:45:54.317Z,26.28
2018-09-09T11:48:20.644Z,26.78
2018-09-09T11:50:46.966Z,26.38
2018-09-09T11:53:13.376Z,26.04
2018-09-09T11:55:39.632Z,25.69
2018-09-09T11:58:05.949Z,24.19
2018-09-09T12:00:32.272Z,21.44
2018-09-09T12:02:58.596Z,19.05
2018-09-09T12:05:24.903Z,18.56
2018-09-09T12:07:51.226Z,18.35
2018-09-09T12:10:17.540Z,18.17
2018-09-09T12:12:43.912Z,18.81
2018-09-09T12:15:10.233Z,19.25
2018-09-09T12:17:36.553Z,19.69
2018-09-09T12:20:02.877Z,20.00
2018-09-09T12:22:29.186Z,20.12
2018-09-09T12:24:55.509Z,20.57
2018-09-09T12:27:21.823Z,21.54
2018-09-09T12:29:48.136Z,21.70
2018-09-09T12:32:14.509Z,21.75
2018-09-09T12:34:40.822Z,22.55
2018-09-09T12:37:07.134Z,23.05
2018-09-09T12:39:33.449Z,23.10
2018-09-09T12:41:59.761Z,23.09
2018-09-09T12:44:26.130Z,23.12
2018-09-09T12:46:52.470Z,22.81
2018-09-09T12:49:18.796Z,22.26
2018-09-09T12:51:45.117Z,20.55
2018-09-09T12:54:11.443Z,18.99
2018-09-09T12:56:37.774Z,18.21
2018-09-09T12:59:04.088Z,17.97
2018-09-09T13:01:30.409Z,17.87
2018-09-09T13:03:56.766Z,17.96
2018-09-09T13:06:23.081Z,18.03
2018-09-09T13:08:49.411Z,18.08
2018-09-09T13:11:15.739Z,18.20
2018-09-09T13:13:42.074Z,18.34
2018-09-09T13:16:08.388Z,18.58
2018-09-09T13:18:34.727Z,18.39
2018-09-09T13:21:01.088Z,18.41
2018-09-09T13:23:27.373Z,18.52
2018-09-09T13:25:53.690Z,18.71
2018-09-09T13:28:20.005Z,18.85
2018-09-09T13:30:46.402Z,18.94
2018-09-09T13:33:12.713Z,19.01
2018-09-09T13:35:39.043Z,19.03
2018-09-09T13:38:05.365Z,19.03
2018-09-09T13:40:31.700Z,19.15
2018-09-09T13:42:58.021Z,18.83
2018-09-09T13:45:24.381Z,18.77
2018-09-09T13:47:50.698Z,18.87
2018-09-09T13:50:17.019Z,18.51
2018-09-09T13:52:43.357Z,18.47
2018-09-09T13:55:09.669Z,18.56
2018-09-09T13:57:35.997Z,18.84
2018-09-09T14:00:02.636Z,19.01
2018-09-09T14:02:28.960Z,19.18
2018-09-09T14:04:55.274Z,19.29
2018-09-09T14:07:21.595Z,19.39
2018-09-09T14:09:47.963Z,19.56
2018-09-09T14:12:14.243Z,19.70
2018-09-09T14:14:40.557Z,19.84
2018-09-09T14:17:06.874Z,19.97
2018-09-09T14:19:33.198Z,20.05
2018-09-09T14:21:59.517Z,20.17
2018-09-09T14:24:25.836Z,20.33
2018-09-09T14:26:52.190Z,20.46
2018-09-09T14:29:18.571Z,20.54
2018-09-09T14:31:44.822Z,20.69
2018-09-09T14:34:11.210Z,20.97
2018-09-09T14:36:37.495Z,21.19
2018-09-09T14:39:04.009Z,21.34
2018-09-09T14:41:31.700Z,21.58
2018-09-09T14:43:56.783Z,21.90
2018-09-09T14:46:23.104Z,22.20
2018-09-09T14:48:49.418Z,22.44
2018-09-09T14:51:15.735Z,22.64
2018-09-09T14:53:42.055Z,22.75
2018-09-09T14:56:08.400Z,22.88
2018-09-09T14:58:34.747Z,22.97
2018-09-09T15:01:01.058Z,23.06
2018-09-09T15:03:27.426Z,23.15
2018-09-09T15:05:53.701Z,23.23
2018-09-09T15:08:20.024Z,23.28
2018-09-09T15:10:46.392Z,23.30
2018-09-09T15:13:12.713Z,23.33
2018-09-09T15:15:39.024Z,23.38
2018-09-09T15:18:05.398Z,23.43
2018-09-09T15:20:34.732Z,23.45
2018-09-09T15:23:01.062Z,23.47
2018-09-09T15:25:27.374Z,23.43
2018-09-09T15:27:53.705Z,23.44
2018-09-09T15:30:20.042Z,23.45
2018-09-09T15:32:46.395Z,23.46
2018-09-09T15:35:12.743Z,23.57
2018-09-09T15:40:05.439Z,23.69
2018-09-09T15:42:31.740Z,23.68
2018-09-09T15:44:58.055Z,23.66
2018-09-09T15:47:24.385Z,23.66
2018-09-09T15:49:50.719Z,23.62
2018-09-09T15:52:17.127Z,23.58
2018-09-09T15:54:43.392Z,23.58
2018-09-09T15:57:09.689Z,23.55
2018-09-09T15:59:36.010Z,23.49
2018-09-09T16:02:02.380Z,23.39
2018-09-09T16:04:28.828Z,23.33
2018-09-09T16:06:55.144Z,23.23
2018-09-09T16:09:21.457Z,23.17
2018-09-09T16:11:47.833Z,23.16
2018-09-09T16:14:14.098Z,23.11
2018-09-09T16:16:40.446Z,23.05
2018-09-09T16:19:06.790Z,22.97
2018-09-09T16:21:33.141Z,22.92
2018-09-09T16:23:59.471Z,22.82
2018-09-09T16:26:25.784Z,22.78
2018-09-09T16:28:52.113Z,22.76
2018-09-09T16:31:18.448Z,22.71
2018-09-09T16:33:44.790Z,22.62
2018-09-09T16:36:11.105Z,22.54
2018-09-09T16:38:37.434Z,22.47
2018-09-09T16:41:03.766Z,22.40
2018-09-09T16:43:30.098Z,22.32
2018-09-09T16:45:56.429Z,22.24
2018-09-09T16:48:22.740Z,22.18
2018-09-09T16:50:49.079Z,22.10
2018-09-09T16:53:15.411Z,22.06
2018-09-09T16:55:41.737Z,22.00
2018-09-09T16:58:08.077Z,22.00
2018-09-09T17:00:34.408Z,21.89
2018-09-09T17:03:00.722Z,21.83
2018-09-09T17:05:27.038Z,21.77
2018-09-09T17:07:53.367Z,21.66
2018-09-09T17:10:19.681Z,21.56
2018-09-09T17:12:46.009Z,21.47
2018-09-09T17:15:12.330Z,21.39
2018-09-09T17:17:38.644Z,21.33
2018-09-09T17:20:04.955Z,21.29
2018-09-09T17:22:31.286Z,21.26
2018-09-09T17:24:57.615Z,21.19
2018-09-09T17:27:23.905Z,21.13
2018-09-09T17:29:50.217Z,21.12
2018-09-09T17:32:16.526Z,21.10
2018-09-09T17:34:42.819Z,21.10
2018-09-09T17:37:09.120Z,21.08
2018-09-09T17:39:35.433Z,21.03
2018-09-09T17:42:01.804Z,21.02
2018-09-09T17:44:28.119Z,20.97
2018-09-09T17:46:54.448Z,20.88
2018-09-09T17:49:20.772Z,20.88
2018-09-09T17:51:47.092Z,20.83
2018-09-09T17:54:13.422Z,20.79
2018-09-09T17:56:39.735Z,20.77
2018-09-09T17:59:06.053Z,20.72
2018-09-09T18:01:32.376Z,20.62
2018-09-09T18:03:58.697Z,20.58
2018-09-09T18:06:25.008Z,20.51
2018-09-09T18:08:51.324Z,20.56
2018-09-09T18:11:17.647Z,20.54
2018-09-09T18:13:43.955Z,20.48
2018-09-09T18:16:10.275Z,20.42
2018-09-09T18:18:36.594Z,20.32
2018-09-09T18:21:02.908Z,20.25
2018-09-09T18:23:29.221Z,20.23
2018-09-09T18:25:55.563Z,20.10
2018-09-09T18:28:21.877Z,20.00
2018-09-09T18:30:48.229Z,19.91
2018-09-09T18:33:14.541Z,19.77
2018-09-09T18:35:40.868Z,19.71
2018-09-09T18:38:07.186Z,19.67
2018-09-09T18:40:33.497Z,19.65
2018-09-09T18:42:59.819Z,19.62
2018-09-09T18:45:26.198Z,19.57
2018-09-09T18:47:52.664Z,19.54
2018-09-09T18:50:19.099Z,19.48
2018-09-09T18:52:45.424Z,19.45
2018-09-09T18:55:11.863Z,19.50
2018-09-09T18:57:38.173Z,19.47
2018-09-09T19:00:04.721Z,19.40
2018-09-09T19:02:31.059Z,19.34
2018-09-09T19:04:57.493Z,19.35
2018-09-09T19:07:23.894Z,19.37
2018-09-09T19:09:50.360Z,19.35
2018-09-09T19:12:16.723Z,19.30
2018-09-09T19:14:43.041Z,19.28
2018-09-09T19:17:09.368Z,19.25
2018-09-09T19:19:35.689Z,19.34
2018-09-09T19:22:02.034Z,19.40
2018-09-09T19:24:28.311Z,19.44
2018-09-09T19:26:54.629Z,19.49
2018-09-09T19:29:20.945Z,19.53
2018-09-09T19:31:47.273Z,19.51
2018-09-09T19:34:13.581Z,19.52
2018-09-09T19:36:39.938Z,19.53
2018-09-09T19:39:06.219Z,19.52
2018-09-09T19:41:32.540Z,19.54
2018-09-09T19:43:58.923Z,19.53
2018-09-09T19:46:25.200Z,19.54
2018-09-09T19:48:51.512Z,19.55
2018-09-09T19:51:17.823Z,19.52
2018-09-09T19:53:44.132Z,19.50
2018-09-09T19:56:10.442Z,19.47
2018-09-09T19:58:36.764Z,19.43
2018-09-09T20:01:03.077Z,19.38
2018-09-09T20:03:29.399Z,19.36
2018-09-09T20:05:55.720Z,19.31
2018-09-09T20:08:22.038Z,19.26
2018-09-09T20:10:48.394Z,19.24
2018-09-09T20:13:14.707Z,19.21
2018-09-09T20:15:41.025Z,19.17
2018-09-09T20:18:07.336Z,19.14
2018-09-09T20:20:33.648Z,19.12
2018-09-09T20:22:59.978Z,19.06
2018-09-09T20:25:26.294Z,19.02
2018-09-09T20:27:52.608Z,18.98
2018-09-09T20:30:18.921Z,18.94
2018-09-09T20:32:45.296Z,18.91
2018-09-09T20:35:11.571Z,18.89
2018-09-09T20:37:37.884Z,18.92
2018-09-09T20:40:04.200Z,18.95
2018-09-09T20:42:30.524Z,18.96
2018-09-09T20:44:56.847Z,18.99
2018-09-09T20:47:23.182Z,18.95
2018-09-09T20:49:49.478Z,18.95
2018-09-09T20:52:15.795Z,18.97
2018-09-09T20:54:42.110Z,18.96
2018-09-09T20:57:08.482Z,18.91
2018-09-09T20:59:34.816Z,18.89
2018-09-09T21:02:01.167Z,18.91
2018-09-09T21:04:27.485Z,18.92
2018-09-09T21:06:53.834Z,18.89
2018-09-09T21:09:20.152Z,18.92
2018-09-09T21:11:46.464Z,18.93
2018-09-09T21:14:12.793Z,18.90
2018-09-09T21:16:39.244Z,18.88
2018-09-09T21:19:05.508Z,18.86
2018-09-09T21:21:31.863Z,18.81
2018-09-09T21:23:58.190Z,18.80
2018-09-09T21:26:24.523Z,18.83
2018-09-09T21:28:50.840Z,18.83
2018-09-09T21:31:17.172Z,18.84
2018-09-09T21:33:43.503Z,18.86
2018-09-09T21:36:09.831Z,18.85
2018-09-09T21:38:36.159Z,18.84
2018-09-09T21:41:02.472Z,18.79
2018-09-09T21:43:28.786Z,18.77
2018-09-09T21:45:55.140Z,18.77
2018-09-09T21:48:21.452Z,18.72
2018-09-09T21:50:47.799Z,18.61
2018-09-09T21:53:14.128Z,18.50
2018-09-09T21:55:40.459Z,18.44
2018-09-09T21:58:06.770Z,18.36
2018-09-09T22:00:33.143Z,18.32
2018-09-09T22:02:59.467Z,18.32
2018-09-09T22:05:25.784Z,18.26
2018-09-09T22:07:52.097Z,18.24
2018-09-09T22:10:18.437Z,18.32
2018-09-09T22:12:44.774Z,18.37
2018-09-09T22:15:11.095Z,18.30
2018-09-09T22:17:37.413Z,18.26
2018-09-09T22:20:03.735Z,18.19
2018-09-09T22:22:30.077Z,18.11
2018-09-09T22:24:56.403Z,18.04
2018-09-09T22:27:22.725Z,17.96
2018-09-09T22:29:49.043Z,17.95
2018-09-09T22:32:15.355Z,17.92
2018-09-09T22:34:41.670Z,17.91
2018-09-09T22:37:07.984Z,17.88
2018-09-09T22:39:34.299Z,17.90
2018-09-09T22:42:00.614Z,17.90
2018-09-09T22:44:26.924Z,17.88
2018-09-09T22:46:53.232Z,17.86
2018-09-09T22:49:19.539Z,17.84
2018-09-09T22:51:45.858Z,17.84
2018-09-09T22:54:12.184Z,17.85
2018-09-09T22:56:38.509Z,17.86
2018-09-09T22:59:04.839Z,17.84
2018-09-09T23:01:31.154Z,17.73
2018-09-09T23:03:57.464Z,17.68
2018-09-09T23:06:23.783Z,17.66
2018-09-09T23:08:50.092Z,17.63
2018-09-09T23:11:16.398Z,17.60
2018-09-09T23:13:42.708Z,17.63
2018-09-09T23:16:09.020Z,17.63
2018-09-09T23:18:35.337Z,17.65
2018-09-09T23:21:01.652Z,17.68
2018-09-09T23:23:27.977Z,17.63
2018-09-09T23:25:54.291Z,17.63
2018-09-09T23:28:20.599Z,17.63
2018-09-09T23:30:46.927Z,17.58
2018-09-09T23:33:13.251Z,17.59
2018-09-09T23:35:39.569Z,17.60
2018-09-09T23:38:05.892Z,17.56
2018-09-09T23:40:32.211Z,17.55
2018-09-09T23:42:58.564Z,17.57
2018-09-09T23:45:24.874Z,17.62
2018-09-09T23:47:51.197Z,17.61
2018-09-09T23:50:17.517Z,17.53
2018-09-09T23:52:43.830Z,17.55
2018-09-09T23:55:10.145Z,17.47
2018-09-09T23:57:36.463Z,17.39
